SBKP/CPQ METAR and TAF weather

Enter ICAO airport designator
Station Type Date Time Source
SBKP METAR 2022/01/19 20:13 UTC NOAA

SBKP 192013Z 30016G26KT 270V340 9999 2500NW +TSRA SCT040 FEW045CB 23/17 Q1017 WS R15


Station Type Date Time Source
SBKP Decoded METAR 2022/01/19 20:13 UTC NOAA

Campinas Aeroporto , Brazil (SBKP) 23-00S 047-08W 661M
Jan 19, 2022 - 03:13 PM EST / 2022.01.19 2013 UTC
Wind: from the WNW (300 degrees) at 18 MPH (16 KT) gusting to 30 MPH (26 KT) (direction variable):0
Visibility: greater than 7 mile(s):0
Sky conditions: partly cloudy
Weather: heavy rain with thunder; Cumulonimbus clouds observed
Temperature: 73 F (23 C)
Dew Point: 62 F (17 C)
Relative Humidity: 68%
Pressure (altimeter): 30.03 in. Hg (1017 hPa)
ob: SBKP 192013Z 30016G26KT 270V340 9999 2500NW +TSRA SCT040 FEW045CB 23/17 Q1017 WS R15
cycle: 20

Station Type Date Time Source
SBKP TAF 2022/01/19 18:01 UTC NOAA

TAF SBKP 191600Z 1918/2018 34005KT 9999 SCT040 TX33/1918Z TN22/2009Z
TEMPO 1918/1923 27010G23KT 7000 TSRA SCT035 FEW045CB
BECMG 1923/2001 16010KT 8000 SCT030 PROB30 2008/2011 SCT008
BECMG 2011/2013 06005KT
BECMG 2013/2015 33005KT
RMK PGQ

Example: see airport list